WSSS/SIN METAR and TAF weather

Enter ICAO airport designator
Station Type Date Time Source
WSSS METAR 2021/04/18 02:30 UTC NOAA

WSSS 180230Z VRB03KT 8000 FEW018 SCT170 BKN300 29/25 Q1013 NOSIG


Station Type Date Time Source
WSSS Decoded METAR 2021/04/18 02:30 UTC NOAA

Singapore / Changi Airport, Singapore (WSSS) 01-22N 103-59E 16M
Apr 17, 2021 - 10:30 PM EDT / 2021.04.18 0230 UTC
Wind: Variable at 3 MPH (3 KT):0
Visibility: 4 mile(s):0
Sky conditions: mostly cloudy
Temperature: 84 F (29 C)
Dew Point: 77 F (25 C)
Relative Humidity: 79%
Pressure (altimeter): 29.91 in. Hg (1013 hPa)
ob: WSSS 180230Z VRB03KT 8000 FEW018 SCT170 BKN300 29/25 Q1013 NOSIG
cycle: 2

Station Type Date Time Source
WSSS TAF 2021/04/18 01:09 UTC NOAA

TAF
AMD WSSS 180100Z 1801/1906 23005KT 9999 FEW015 SCT020

Example: see airport list